地図

経路データ

SID SEASON NUMBER BASIN SUBBASIN NAME ISO_TIME NATURE LAT LON WMO_WIND WMO_PRES WMO_AGENCY TRACK_TYPE DIST2LAND LANDFALL IFLAG USA_AGENCY USA_ATCF_ID USA_LAT USA_LON USA_RECORD USA_STATUS USA_WIND USA_PRES USA_SSHS USA_R34_NE USA_R34_SE USA_R34_SW USA_R34_NW USA_R50_NE USA_R50_SE USA_R50_SW USA_R50_NW USA_R64_NE USA_R64_SE USA_R64_SW USA_R64_NW USA_POCI USA_ROCI USA_RMW USA_EYE TOKYO_LAT TOKYO_LON TOKYO_GRADE TOKYO_WIND TOKYO_PRES TOKYO_R50_DIR TOKYO_R50_LONG TOKYO_R50_SHORT TOKYO_R30_DIR TOKYO_R30_LONG TOKYO_R30_SHORT TOKYO_LAND CMA_LAT CMA_LON CMA_CAT CMA_WIND CMA_PRES HKO_LAT HKO_LON HKO_CAT HKO_WIND HKO_PRES NEWDELHI_LAT NEWDELHI_LON NEWDELHI_GRADE NEWDELHI_WIND NEWDELHI_PRES NEWDELHI_CI NEWDELHI_DP NEWDELHI_POCI REUNION_LAT REUNION_LON REUNION_TYPE REUNION_WIND REUNION_PRES REUNION_TNUM REUNION_CI REUNION_RMW REUNION_R34_NE REUNION_R34_SE REUNION_R34_SW REUNION_R34_NW REUNION_R50_NE REUNION_R50_SE REUNION_R50_SW REUNION_R50_NW REUNION_R64_NE REUNION_R64_SE REUNION_R64_SW REUNION_R64_NW BOM_LAT BOM_LON BOM_TYPE BOM_WIND BOM_PRES BOM_TNUM BOM_CI BOM_RMW BOM_R34_NE BOM_R34_SE BOM_R34_SW BOM_R34_NW BOM_R50_NE BOM_R50_SE BOM_R50_SW BOM_R50_NW BOM_R64_NE BOM_R64_SE BOM_R64_SW BOM_R64_NW BOM_ROCI BOM_POCI BOM_EYE BOM_POS_METHOD BOM_PRES_METHOD NADI_LAT NADI_LON NADI_CAT NADI_WIND NADI_PRES WELLINGTON_LAT WELLINGTON_LON WELLINGTON_WIND WELLINGTON_PRES DS824_LAT DS824_LON DS824_STAGE DS824_WIND DS824_PRES TD9636_LAT TD9636_LON TD9636_STAGE TD9636_WIND TD9636_PRES TD9635_LAT TD9635_LON TD9635_WIND TD9635_PRES TD9635_ROCI NEUMANN_LAT NEUMANN_LON NEUMANN_CLASS NEUMANN_WIND NEUMANN_PRES MLC_LAT MLC_LON MLC_CLASS MLC_WIND MLC_PRES USA_GUST BOM_GUST BOM_GUST_PER REUNION_GUST REUNION_GUST_PER USA_SEAHGT USA_SEARAD_NE USA_SEARAD_SE USA_SEARAD_SW USA_SEARAD_NW STORM_SPEED STORM_DIR
1932276N15134 1932 58 WP MM NOT_NAMED 1932-10-01 22:00:00 NR 14.8000 134.300 main 995 941 __________O___ -1 14.8000 134.300 7 24 307
1932276N15134 1932 58 WP MM NOT_NAMED 1932-10-02 00:00:00 NR 15.2818 133.635 main 941 885 __________P___ -1 15.2818 133.635 7 23 308
1932276N15134 1932 58 WP MM NOT_NAMED 1932-10-02 03:00:00 NR 16.0090 132.715 main 885 862 __________P___ -1 16.0090 132.715 7 22 313
1932276N15134 1932 58 WP MM NOT_NAMED 1932-10-02 06:00:00 NR 16.7537 132.002 main 868 860 __________P___ -1 16.7537 132.002 7 19 326
1932276N15134 1932 58 WP MM NOT_NAMED 1932-10-02 09:00:00 NR 17.5310 131.627 main 869 874 __________P___ -1 17.5310 131.627 7 17 340
1932276N15134 1932 58 WP MM NOT_NAMED 1932-10-02 10:00:00 NR 17.8000 131.600 main 885 885 __________O___ -1 17.8000 131.600 7 17 5
1932276N15134 1932 58 WP MM NOT_NAMED 1932-10-02 12:00:00 NR 18.3538 131.708 main 928 928 __________P___ -1 18.3538 131.708 7 18 22
1932276N15134 1932 58 WP MM NOT_NAMED 1932-10-02 15:00:00 NR 19.2052 132.190 main 1021 1027 __________P___ -1 19.2052 132.190 7 20 34
1932276N15134 1932 58 WP MM NOT_NAMED 1932-10-02 18:00:00 NR 20.0489 132.901 main 1127 1128 __________P___ -1 20.0489 132.901 7 22 40
1932276N15134 1932 58 WP MM NOT_NAMED 1932-10-02 21:00:00 NR 20.8489 133.665 main 1178 1150 __________P___ -1 20.8489 133.665 7 21 42
1932276N15134 1932 58 WP MM NOT_NAMED 1932-10-02 22:00:00 NR 21.1000 133.900 main 1150 1106 __________O___ -1 21.1000 133.900 3 18 35
1932276N15134 1932 58 WP MM NOT_NAMED 1932-10-03 00:00:00 NR 21.5638 134.204 main 1106 1056 __________P___ -1 21.5638 134.204 3 16 31
1932276N15134 1932 58 WP MM NOT_NAMED 1932-10-03 03:00:00 NR 22.2099 134.621 main 1056 1009 __________P___ -1 22.2099 134.621 3 15 31
1932276N15134 1932 58 WP MM NOT_NAMED 1932-10-03 06:00:00 NR 22.8161 135.023 main 1009 967 __________P___ -1 22.8161 135.023 3 14 32
1932276N15134 1932 58 WP MM NOT_NAMED 1932-10-03 09:00:00 NR 23.4042 135.447 main 967 957 __________P___ -1 23.4042 135.447 3 14 34
1932276N15134 1932 58 WP MM NOT_NAMED 1932-10-03 10:00:00 NR 23.6000 135.600 main 957 934 __________O___ -1 23.6000 135.600 4 16 38
1932276N15134 1932 58 WP MM NOT_NAMED 1932-10-03 12:00:00 NR 24.0166 135.964 main 939 908 __________P___ -1 24.0166 135.964 4 16 40
1932276N15134 1932 58 WP MM NOT_NAMED 1932-10-03 15:00:00 NR 24.6353 136.549 main 908 888 __________P___ -1 24.6353 136.549 4 16 41
1932276N15134 1932 58 WP MM NOT_NAMED 1932-10-03 18:00:00 NR 25.2379 137.147 main 888 867 __________P___ -1 25.2379 137.147 4 16 42
1932276N15134 1932 58 WP MM NOT_NAMED 1932-10-03 21:00:00 NR 25.8149 137.721 main 867 850 __________P___ -1 25.8149 137.721 4 15 42
1932276N15134 1932 58 WP MM NOT_NAMED 1932-10-03 22:00:00 NR 26.0000 137.900 main 850 814 __________O___ -1 26.0000 137.900 4 14 38
1932276N15134 1932 58 WP MM NOT_NAMED 1932-10-04 00:00:00 NR 26.3601 138.202 main 814 773 __________P___ -1 26.3601 138.202 4 13 36
1932276N15134 1932 58 WP MM NOT_NAMED 1932-10-04 03:00:00 NR 26.8760 138.614 main 773 736 __________P___ -1 26.8760 138.614 4 12 36
1932276N15134 1932 58 WP MM NOT_NAMED 1932-10-04 06:00:00 NR 27.3686 139.014 main 736 713 __________P___ -1 27.3686 139.014 4 12 37
1932276N15134 1932 58 WP MM NOT_NAMED 1932-10-04 09:00:00 NR 27.8442 139.443 main 713 703 __________P___ -1 27.8442 139.443 4 12 39
1932276N15134 1932 58 WP MM NOT_NAMED 1932-10-04 10:00:00 NR 28.0000 139.600 main 703 690 __________O___ -1 28.0000 139.600 4 13 43
1932276N15134 1932 58 WP MM NOT_NAMED 1932-10-04 12:00:00 NR 28.3084 139.940 main 690 666 __________P___ -1 28.3084 139.940 4 13 46
1932276N15134 1932 58 WP MM NOT_NAMED 1932-10-04 15:00:00 NR 28.7638 140.507 main 666 640 __________P___ -1 28.7638 140.507 4 14 49
1932276N15134 1932 58 WP MM NOT_NAMED 1932-10-04 18:00:00 NR 29.2117 141.127 main 640 606 __________P___ -1 29.2117 141.127 4 14 51
1932276N15134 1932 58 WP MM NOT_NAMED 1932-10-04 21:00:00 NR 29.6537 141.779 main 606 598 __________P___ -1 29.6537 141.779 4 14 52
1932276N15134 1932 58 WP MM NOT_NAMED 1932-10-04 22:00:00 NR 29.8000 142.000 main 601 __________O___ -1 29.8000 142.000 7 14 53

デジタル台風データ・検索

IBTrACS Databaseについて

本データベースは、米国NOAAが公開する1842年以降の世界の熱帯低気圧のベストトラックデータアーカイブInternational Best Track Archive for Climate Stewardship (IBTrACS)を、ウェブで閲覧しやすい形式に変換したものです。

最終更新日:2021-11-26